Newberry, Indiana
Current Conditions -  °F | °C
As of 1:15 PM on Sunday 21 Dec 2014 (Local Time) from KDCY Reporting Station
Clear Clear  
Wind Chill: 37°   Ceiling: Unl
Heat Index: 37°   Visibility: 10mi
Dew Point: 28°   Wind: 3mph
Humidity: 67%   Direction: 100°E
Pressure: 30.21"   Gusts: NA
Location:  38.93°N, 87.02°W
Report Text: KDCY 211815Z AUTO 10003KT 10SM CLR 03/M02 A3021 RMK AO2 T00301025
Loading
Personal Weather Stations






























Interactive Weather Map New forecast layout! Learn more

10-Day Weather Forecast

Advertisements
Track Severe Weather on mobile